»·PEaware :: UAL1893 KSAN-KLAX

UAL1893 :: KSAN-KLAX

FLIGHT INFORMATION

Flight Status: Arrived
Operator:
United Airlines
More flights by this operator :: More flights under this callsign
Pilot: Jac C. (16067)
Aircraft: AIRBUS A320
(A320)
More flights by this aircraft type
Origin: KSAN San Diego Intl-Lindbergh
United States
Destination: KLAX Los Angeles Intl
United States
More flights between these airports :: More routes between these airports
Route: +PEBLE6 SLI
File this flight plan on PilotEdge
Remarks:
Altitude:
(Current/Filed)
10,000ft
Speed:
(Current/Filed)
345kts
Departed: 30-Jan-18 08:30 PM
Arrived: 30-Jan-18 08:58 PM
Distance/Time
Traveled:
95nm/0:27
Distance/Time
To Go:
Arrived

Flight Plot

Page will automatically refresh every two minutes.


Map Options




Map Legend


Flown Route
Filed Route
Departure Airport
Arrival Airport
Navaid (VOR, NDB)
Fix

Horizontal Profiles

Position Reports

Time Latitude Longitude Heading Altitude Ground
Speed
30-Jan-18 19:49 32.734487 -117.204504 129 19ft 0kts
30-Jan-18 19:50 32.734487 -117.204504 129 19ft 0kts
30-Jan-18 19:51 32.734487 -117.204504 129 19ft 0kts
30-Jan-18 19:52 32.734487 -117.204504 129 19ft 0kts
30-Jan-18 19:53 32.734487 -117.204504 129 19ft 0kts
30-Jan-18 19:54 32.734487 -117.204504 129 19ft 0kts
30-Jan-18 19:55 32.734487 -117.204504 129 19ft 0kts
30-Jan-18 19:56 32.734487 -117.204504 129 19ft 0kts
30-Jan-18 19:57 32.734487 -117.204504 129 19ft 0kts
30-Jan-18 19:58 32.734487 -117.204504 129 19ft 0kts
30-Jan-18 19:59 32.734487 -117.204504 129 19ft 0kts
30-Jan-18 20:00 32.734487 -117.204504 129 19ft 0kts
30-Jan-18 20:01 32.734487 -117.204504 129 19ft 0kts
30-Jan-18 20:02 32.734487 -117.204504 129 19ft 0kts
30-Jan-18 20:03 32.734487 -117.204504 129 19ft 0kts
30-Jan-18 20:04 32.734487 -117.204504 129 19ft 0kts
30-Jan-18 20:05 32.734487 -117.204504 129 19ft 0kts
30-Jan-18 20:06 32.734487 -117.204504 129 19ft 0kts
30-Jan-18 20:07 32.734487 -117.204504 129 19ft 0kts
30-Jan-18 20:08 32.734487 -117.204504 129 19ft 0kts
30-Jan-18 20:09 32.734487 -117.204504 129 19ft 0kts
30-Jan-18 20:10 32.734487 -117.204504 129 19ft 0kts
30-Jan-18 20:11 32.734487 -117.204504 129 19ft 0kts
30-Jan-18 20:12 32.734487 -117.204504 129 19ft 0kts
30-Jan-18 20:13 32.734487 -117.204504 129 19ft 0kts
30-Jan-18 20:14 32.734487 -117.204504 129 19ft 0kts
30-Jan-18 20:15 32.734487 -117.204504 129 19ft 0kts
30-Jan-18 20:16 32.734487 -117.204504 129 19ft 0kts
30-Jan-18 20:17 32.734487 -117.204504 129 19ft 0kts
30-Jan-18 20:18 32.734487 -117.204504 129 19ft 0kts
30-Jan-18 20:19 32.734487 -117.204504 129 19ft 0kts
30-Jan-18 20:20 32.734487 -117.204504 129 19ft 0kts
30-Jan-18 20:21 32.734487 -117.204504 129 19ft 0kts
30-Jan-18 20:22 32.734670 -117.204766 129 19ft 2kts
30-Jan-18 20:23 32.734735 -117.205348 54 19ft 2kts
30-Jan-18 20:24 32.734406 -117.205549 3 19ft 0kts
30-Jan-18 20:25 32.734406 -117.205549 3 19ft 0kts
30-Jan-18 20:26 32.734480 -117.205544 2 19ft 0kts
30-Jan-18 20:27 32.734675 -117.205525 9 19ft 4kts
30-Jan-18 20:28 32.735872 -117.203669 88 19ft 8kts
30-Jan-18 20:29 32.735037 -117.200030 106 19ft 13kts
30-Jan-18 20:30 32.734121 -117.196262 105 20ft 14kts
30-Jan-18 20:31 32.733045 -117.191824 105 22ft 17kts
30-Jan-18 20:32 32.731351 -117.184814 105 19ft 20kts
30-Jan-18 20:33 32.729767 -117.178319 105 22ft 19kts
30-Jan-18 20:34 32.729501 -117.176811 80 24ft 1kts
30-Jan-18 20:35 32.730387 -117.176559 286 26ft 21kts
30-Jan-18 20:36 32.744154 -117.217340 304 1474ft 175kts
30-Jan-18 20:37 32.775741 -117.271296 305 3884ft 237kts
30-Jan-18 20:38 32.817577 -117.342414 305 6760ft 277kts
30-Jan-18 20:39 32.861336 -117.418477 305 9761ft 280kts
30-Jan-18 20:40 32.914492 -117.484104 330 10006ft 281kts
30-Jan-18 20:41 32.982500 -117.529692 330 10009ft 282kts
30-Jan-18 20:42 33.033296 -117.598874 306 10008ft 280kts
30-Jan-18 20:43 33.078303 -117.675017 305 10009ft 282kts
30-Jan-18 20:44 33.122290 -117.744316 308 10008ft 282kts
30-Jan-18 20:45 33.170325 -117.818229 308 10008ft 282kts
30-Jan-18 20:46 33.240008 -117.857031 342 10009ft 283kts
30-Jan-18 20:47 33.315456 -117.884366 342 10008ft 284kts
30-Jan-18 20:48 33.390144 -117.911463 343 8828ft 286kts
30-Jan-18 20:49 33.466846 -117.939303 343 6382ft 283kts
30-Jan-18 20:50 33.539806 -117.965861 343 6013ft 276kts
30-Jan-18 20:51 33.613293 -117.992619 343 6011ft 277kts
30-Jan-18 20:52 33.686826 -118.019452 343 6012ft 278kts
30-Jan-18 20:53 33.760847 -118.046489 342 6012ft 277kts
30-Jan-18 20:54 33.836342 -118.052660 2 5398ft 272kts
30-Jan-18 20:55 33.909799 -118.046570 2 4244ft 254kts
30-Jan-18 20:56 33.975447 -118.041360 2 4013ft 215kts
30-Jan-18 20:57 34.030852 -118.052613 301 4046ft 217kts
30-Jan-18 20:58 34.017631 -118.118986 242 4040ft 215kts
30-Jan-18 20:59 33.985685 -118.177250 236 3728ft 209kts
30-Jan-18 21:00 33.965273 -118.242838 263 3190ft 192kts
30-Jan-18 21:01 33.963150 -118.302892 252 1991ft 177kts
30-Jan-18 21:02 33.957069 -118.357781 260 868ft 154kts
30-Jan-18 21:03 33.951626 -118.406582 263 124ft 135kts
30-Jan-18 21:04 33.949500 -118.425134 244 117ft 26kts
30-Jan-18 21:05 33.948693 -118.426583 227 114ft 0kts
30-Jan-18 21:06 33.947002 -118.427781 185 111ft 13kts
30-Jan-18 21:07 33.946185 -118.427638 45 110ft 9kts
30-Jan-18 21:08 33.946730 -118.423302 83 117ft 15kts
30-Jan-18 21:09 33.947429 -118.416438 83 121ft 21kts
30-Jan-18 21:10 33.945295 -118.412641 167 121ft 16kts
30-Jan-18 21:11 33.939721 -118.411739 172 125ft 21kts
30-Jan-18 21:12 33.938878 -118.407096 83 127ft 20kts
30-Jan-18 21:13 33.939482 -118.401025 78 120ft 15kts
30-Jan-18 21:14 33.941589 -118.400573 66 119ft 3kts
30-Jan-18 21:15 33.941651 -118.400211 81 118ft 0kts

Navigation Log

Ident Type
Flight plan parsing failed, navigation log unavailable